createdAt,value
2017-07-20T00:01:13.231Z,20.73
2017-07-20T00:03:40.969Z,19.78
2017-07-20T00:06:09.558Z,20.82
2017-07-20T00:08:38.323Z,18.08
2017-07-20T00:11:05.500Z,18.58
2017-07-20T00:13:32.450Z,19.12
2017-07-20T00:15:59.651Z,16.97
2017-07-20T00:18:29.855Z,17.98
2017-07-20T00:20:58.719Z,16.92
2017-07-20T00:23:28.733Z,16.72
2017-07-20T00:25:57.836Z,19.08
2017-07-20T00:28:27.121Z,17.28
2017-07-20T00:30:54.773Z,16.37
2017-07-20T00:33:23.793Z,16.63
2017-07-20T00:35:53.696Z,15.43
2017-07-20T00:38:22.909Z,14.95
2017-07-20T00:40:54.902Z,16.07
2017-07-20T00:43:22.559Z,16.13
2017-07-20T00:45:50.401Z,15.62
2017-07-20T00:48:19.121Z,15.03
2017-07-20T00:50:50.039Z,17.68
2017-07-20T00:55:51.080Z,18.47
2017-07-20T00:58:18.428Z,17.35
2017-07-20T01:00:46.137Z,18.23
2017-07-20T01:03:16.479Z,19.62
2017-07-20T01:05:47.384Z,18.67
2017-07-20T01:08:18.511Z,20.30
2017-07-20T01:10:59.414Z,19.33
2017-07-20T01:13:26.214Z,19.28
2017-07-20T01:15:55.298Z,19.75
2017-07-20T01:18:23.011Z,20.17
2017-07-20T01:20:57.292Z,20.85
2017-07-20T01:23:27.442Z,19.70
2017-07-20T01:25:54.204Z,18.78
2017-07-20T01:28:21.377Z,18.55
2017-07-20T01:30:50.956Z,18.98
2017-07-20T01:33:19.276Z,18.28
2017-07-20T01:35:47.281Z,18.57
2017-07-20T01:38:15.637Z,18.75
2017-07-20T01:40:45.155Z,18.80
2017-07-20T01:43:13.043Z,18.83
2017-07-20T01:45:42.495Z,18.83
2017-07-20T01:48:12.422Z,20.42
2017-07-20T01:50:42.109Z,22.18
2017-07-20T01:53:10.011Z,22.55
2017-07-20T01:55:36.832Z,22.10
2017-07-20T01:58:04.713Z,23.02
2017-07-20T02:00:32.099Z,22.22
2017-07-20T02:02:59.229Z,23.05
2017-07-20T02:05:26.410Z,23.25
2017-07-20T02:07:54.596Z,21.02
2017-07-20T02:10:23.481Z,22.42
2017-07-20T02:12:53.747Z,21.42
2017-07-20T02:15:27.435Z,23.73
2017-07-20T02:17:56.060Z,24.15
2017-07-20T02:20:26.618Z,23.02
2017-07-20T02:22:53.438Z,23.18
2017-07-20T02:25:21.304Z,22.48
2017-07-20T02:27:50.599Z,22.53
2017-07-20T02:30:19.019Z,23.17
2017-07-20T02:32:48.336Z,22.17
2017-07-20T02:35:16.720Z,20.37
2017-07-20T02:37:53.958Z,20.27
2017-07-20T02:40:20.768Z,21.72
2017-07-20T02:42:48.027Z,23.08
2017-07-20T02:45:17.444Z,21.47
2017-07-20T02:47:45.045Z,21.27
2017-07-20T02:52:47.643Z,22.35
2017-07-20T02:55:22.516Z,21.72
2017-07-20T02:57:51.684Z,24.35
2017-07-20T03:00:20.836Z,22.17
2017-07-20T03:02:47.913Z,21.45
2017-07-20T03:05:19.682Z,19.07
2017-07-20T03:07:48.252Z,19.42
2017-07-20T03:10:16.599Z,19.98
2017-07-20T03:12:44.031Z,22.55
2017-07-20T03:15:14.991Z,22.38
2017-07-20T03:17:42.845Z,22.30
2017-07-20T03:20:09.979Z,22.02
2017-07-20T03:22:42.854Z,23.57
2017-07-20T03:25:10.567Z,23.05
2017-07-20T03:30:10.161Z,20.97
2017-07-20T03:32:38.085Z,23.05
2017-07-20T03:35:07.568Z,22.50
2017-07-20T03:40:09.093Z,18.70
2017-07-20T03:42:36.126Z,21.83
2017-07-20T03:45:02.911Z,19.95
2017-07-20T03:47:30.148Z,18.80
2017-07-20T03:49:59.210Z,19.77
2017-07-20T03:52:29.121Z,18.52
2017-07-20T03:54:57.749Z,20.17
2017-07-20T03:57:29.526Z,19.50
2017-07-20T03:59:58.564Z,16.67
2017-07-20T04:02:26.352Z,20.05
2017-07-20T04:04:56.410Z,18.20
2017-07-20T04:07:26.956Z,18.42
2017-07-20T04:09:57.737Z,19.87
2017-07-20T04:15:07.532Z,18.17
2017-07-20T04:17:34.732Z,18.33
2017-07-20T04:20:06.409Z,19.18
2017-07-20T04:22:35.233Z,18.02
2017-07-20T04:25:04.971Z,16.87
2017-07-20T04:27:34.140Z,16.58
2017-07-20T04:30:03.406Z,18.22
2017-07-20T04:35:07.767Z,17.17
2017-07-20T04:37:35.462Z,19.37
2017-07-20T04:40:06.375Z,19.67
2017-07-20T04:42:36.413Z,18.98
2017-07-20T04:45:04.164Z,17.30
2017-07-20T04:47:31.734Z,20.03
2017-07-20T04:49:58.892Z,19.33
2017-07-20T04:52:29.727Z,20.10
2017-07-20T04:54:58.783Z,19.43
2017-07-20T04:57:26.131Z,19.30
2017-07-20T04:59:54.250Z,20.07
2017-07-20T05:02:22.202Z,20.82
2017-07-20T05:04:54.679Z,18.32
2017-07-20T05:07:21.847Z,19.45
2017-07-20T05:09:50.302Z,19.50
2017-07-20T05:12:17.116Z,19.35
2017-07-20T05:14:45.535Z,16.23
2017-07-20T05:17:14.271Z,18.75
2017-07-20T05:19:42.185Z,20.60
2017-07-20T05:24:45.878Z,20.80
2017-07-20T05:27:13.535Z,21.75
2017-07-20T05:29:51.483Z,22.22
2017-07-20T05:34:53.342Z,26.88
2017-07-20T05:37:22.883Z,23.13
2017-07-20T05:39:53.277Z,23.02
2017-07-20T05:42:24.018Z,21.72
2017-07-20T05:44:53.351Z,20.40
2017-07-20T05:47:21.467Z,19.88
2017-07-20T05:49:51.043Z,19.18
2017-07-20T05:52:20.032Z,20.17
2017-07-20T05:54:48.227Z,20.77
2017-07-20T05:57:17.779Z,20.22
2017-07-20T05:59:46.044Z,22.25
2017-07-20T06:02:14.779Z,21.18
2017-07-20T06:04:42.035Z,22.47
2017-07-20T06:07:09.226Z,23.25
2017-07-20T06:09:36.278Z,21.12
2017-07-20T06:12:03.423Z,22.20
2017-07-20T06:14:30.412Z,24.30
2017-07-20T06:16:57.562Z,23.93
2017-07-20T06:19:24.722Z,22.50
2017-07-20T06:21:51.813Z,21.23
2017-07-20T06:24:18.921Z,18.02
2017-07-20T06:26:46.586Z,17.75
2017-07-20T06:29:13.637Z,21.22
2017-07-20T06:31:40.680Z,18.33
2017-07-20T06:34:07.753Z,18.80
2017-07-20T06:36:34.882Z,18.98
2017-07-20T06:39:02.021Z,18.43
2017-07-20T06:41:29.173Z,16.83
2017-07-20T06:43:56.223Z,18.28
2017-07-20T06:46:23.322Z,17.02
2017-07-20T06:48:51.058Z,16.13
2017-07-20T06:51:17.901Z,17.72
2017-07-20T06:53:45.077Z,17.83
2017-07-20T06:56:12.090Z,17.28
2017-07-20T06:58:39.166Z,17.28
2017-07-20T07:01:05.972Z,19.78
2017-07-20T07:03:33.096Z,19.43
2017-07-20T07:05:59.956Z,17.58
2017-07-20T07:08:26.791Z,20.58
2017-07-20T07:10:53.618Z,19.67
2017-07-20T07:13:20.620Z,21.73
2017-07-20T07:15:49.107Z,19.12
2017-07-20T07:18:15.929Z,22.95
2017-07-20T07:20:43.455Z,20.33
2017-07-20T07:23:10.265Z,19.97
2017-07-20T07:25:41.150Z,19.20
2017-07-20T07:28:09.358Z,19.72
2017-07-20T07:30:36.389Z,17.18
2017-07-20T07:33:03.517Z,18.02
2017-07-20T07:35:30.686Z,17.17
2017-07-20T07:37:57.886Z,17.62
2017-07-20T07:40:25.448Z,15.67
2017-07-20T07:42:52.527Z,17.03
2017-07-20T07:45:19.582Z,17.02
2017-07-20T07:47:46.649Z,17.50
2017-07-20T07:50:13.827Z,18.47
2017-07-20T07:52:40.849Z,18.88
2017-07-20T07:55:07.931Z,17.92
2017-07-20T07:57:35.076Z,18.28
2017-07-20T08:00:02.264Z,18.53
2017-07-20T08:02:29.279Z,19.58
2017-07-20T08:04:56.288Z,19.57
2017-07-20T08:07:24.041Z,17.64
2017-07-20T08:09:51.053Z,18.38
2017-07-20T08:12:18.537Z,17.60
2017-07-20T08:14:45.683Z,17.60
2017-07-20T08:17:13.173Z,17.78
2017-07-20T08:19:40.654Z,16.32
2017-07-20T08:22:08.160Z,17.08
2017-07-20T08:24:34.942Z,16.37
2017-07-20T08:27:01.728Z,16.05
2017-07-20T08:29:28.769Z,15.22
2017-07-20T08:31:55.906Z,14.66
2017-07-20T08:34:22.912Z,14.00
2017-07-20T08:39:36.135Z,15.27
2017-07-20T08:42:02.934Z,16.02
2017-07-20T08:44:29.738Z,14.57
2017-07-20T08:46:56.567Z,16.03
2017-07-20T08:49:23.710Z,16.35
2017-07-20T08:51:50.510Z,15.63
2017-07-20T08:54:17.764Z,14.86
2017-07-20T08:56:45.825Z,14.80
2017-07-20T08:59:13.218Z,15.65
2017-07-20T09:04:14.550Z,14.62
2017-07-20T09:06:45.265Z,14.93
2017-07-20T09:09:12.061Z,15.42
2017-07-20T09:11:39.250Z,13.48
2017-07-20T09:14:09.652Z,14.84
2017-07-20T09:16:38.345Z,14.48
2017-07-20T09:19:05.347Z,11.07
2017-07-20T09:21:35.267Z,11.72
2017-07-20T09:24:02.443Z,10.68
2017-07-20T09:26:30.368Z,10.35
2017-07-20T09:28:58.882Z,8.72
2017-07-20T09:31:30.807Z,8.60
2017-07-20T09:33:57.595Z,7.96
2017-07-20T09:36:24.706Z,9.30
2017-07-20T09:38:53.873Z,8.48
2017-07-20T09:41:21.523Z,8.28
2017-07-20T09:43:51.818Z,7.58
2017-07-20T09:46:18.656Z,8.92
2017-07-20T09:48:46.060Z,8.48
2017-07-20T09:51:14.418Z,7.70
2017-07-20T09:53:46.488Z,7.80
2017-07-20T09:56:13.593Z,9.60
2017-07-20T09:58:44.943Z,9.42
2017-07-20T10:01:12.987Z,9.02
2017-07-20T10:03:40.910Z,9.38
2017-07-20T10:06:08.589Z,9.54
2017-07-20T10:08:35.404Z,8.96
2017-07-20T10:13:35.271Z,9.42
2017-07-20T10:16:05.480Z,8.96
2017-07-20T10:18:35.829Z,9.36
2017-07-20T10:21:02.927Z,9.50
2017-07-20T10:23:30.078Z,9.66
2017-07-20T10:25:58.617Z,8.58
2017-07-20T10:28:26.137Z,8.58
2017-07-20T10:31:00.157Z,8.08
2017-07-20T10:33:29.677Z,7.92
2017-07-20T10:36:02.765Z,8.06
2017-07-20T10:38:31.061Z,8.64
2017-07-20T10:40:59.667Z,9.88
2017-07-20T10:43:26.788Z,9.46
2017-07-20T10:45:53.615Z,8.62
2017-07-20T10:48:21.141Z,9.76
2017-07-20T10:50:48.547Z,10.02
2017-07-20T10:53:16.837Z,10.04
2017-07-20T10:55:45.232Z,10.20
2017-07-20T10:58:12.631Z,10.92
2017-07-20T11:00:41.563Z,10.74
2017-07-20T11:03:09.933Z,11.36
2017-07-20T11:05:37.829Z,9.64
2017-07-20T11:08:05.859Z,11.12
2017-07-20T11:10:33.954Z,10.18
2017-07-20T11:13:03.406Z,12.72
2017-07-20T11:15:30.576Z,11.62
2017-07-20T11:18:00.109Z,11.34
2017-07-20T11:20:27.330Z,12.46
2017-07-20T11:22:55.600Z,12.42
2017-07-20T11:25:23.032Z,13.14
2017-07-20T11:27:53.120Z,14.60
2017-07-20T11:30:20.038Z,13.90
2017-07-20T11:32:46.805Z,13.22
2017-07-20T11:35:14.213Z,12.78
2017-07-20T11:37:40.999Z,12.74
2017-07-20T11:40:07.753Z,13.94
2017-07-20T11:42:34.513Z,14.42
2017-07-20T11:45:01.534Z,12.48
2017-07-20T11:47:28.284Z,11.82
2017-07-20T11:49:55.032Z,12.20
2017-07-20T11:52:21.821Z,11.50
2017-07-20T11:54:48.563Z,12.18
2017-07-20T11:57:15.318Z,10.68
2017-07-20T11:59:42.099Z,10.70
2017-07-20T12:02:09.262Z,11.06
2017-07-20T12:04:36.248Z,9.90
2017-07-20T12:07:03.015Z,10.40
2017-07-20T12:09:29.757Z,11.90
2017-07-20T12:11:56.748Z,10.36
2017-07-20T12:14:23.535Z,10.38
2017-07-20T12:16:50.300Z,11.20
2017-07-20T12:19:17.354Z,10.62
2017-07-20T12:21:44.367Z,11.18
2017-07-20T12:24:11.177Z,11.08
2017-07-20T12:26:38.150Z,10.88
2017-07-20T12:29:05.305Z,11.28
2017-07-20T12:31:32.343Z,10.40
2017-07-20T12:33:59.319Z,9.96
2017-07-20T12:36:26.100Z,11.70
2017-07-20T12:38:53.108Z,10.32
2017-07-20T12:41:19.878Z,8.80
2017-07-20T12:43:46.892Z,9.02
2017-07-20T12:46:13.641Z,9.28
2017-07-20T12:48:40.786Z,8.76
2017-07-20T12:51:07.920Z,8.88
2017-07-20T12:53:34.683Z,8.62
2017-07-20T12:56:01.660Z,8.40
2017-07-20T12:58:28.428Z,8.04
2017-07-20T13:00:55.175Z,7.52
2017-07-20T13:03:21.911Z,8.36
2017-07-20T13:05:49.043Z,7.04
2017-07-20T13:08:15.822Z,8.12
2017-07-20T13:10:42.895Z,8.00
2017-07-20T13:13:09.662Z,8.12
2017-07-20T13:15:36.409Z,7.00
2017-07-20T13:18:03.394Z,6.88
2017-07-20T13:20:30.562Z,6.84
2017-07-20T13:22:57.313Z,6.68
2017-07-20T13:25:24.065Z,6.52
2017-07-20T13:27:51.237Z,6.40
2017-07-20T13:30:18.335Z,6.14
2017-07-20T13:32:45.327Z,6.64
2017-07-20T13:35:12.436Z,6.68
2017-07-20T13:37:39.171Z,6.60
2017-07-20T13:40:06.140Z,6.96
2017-07-20T13:42:32.922Z,5.98
2017-07-20T13:44:59.672Z,5.94
2017-07-20T13:47:26.408Z,5.58
2017-07-20T13:49:53.491Z,5.50
2017-07-20T13:52:20.247Z,6.12
2017-07-20T13:54:46.995Z,5.56
2017-07-20T13:57:14.007Z,5.98
2017-07-20T13:59:41.129Z,5.00
2017-07-20T14:02:08.105Z,5.10
2017-07-20T14:04:34.885Z,5.10
2017-07-20T14:07:01.632Z,4.68
2017-07-20T14:09:28.377Z,4.68
2017-07-20T14:11:55.464Z,4.82
2017-07-20T14:14:22.491Z,4.42
2017-07-20T14:16:49.225Z,6.12
2017-07-20T14:19:15.996Z,5.10
2017-07-20T14:21:43.090Z,4.80
2017-07-20T14:24:09.827Z,5.70
2017-07-20T14:26:37.006Z,5.58
2017-07-20T14:29:03.992Z,5.56
2017-07-20T14:31:30.757Z,4.64
2017-07-20T14:33:57.551Z,4.52
2017-07-20T14:36:24.376Z,4.70
2017-07-20T14:38:51.120Z,3.88
2017-07-20T14:41:18.250Z,4.26
2017-07-20T14:43:45.002Z,4.48
2017-07-20T14:46:11.748Z,3.96
2017-07-20T14:48:38.895Z,4.34
2017-07-20T14:51:05.647Z,3.88
2017-07-20T14:53:32.410Z,4.22
2017-07-20T14:55:59.179Z,4.12
2017-07-20T14:58:25.916Z,4.30
2017-07-20T15:00:52.952Z,3.52
2017-07-20T15:03:20.089Z,3.98
2017-07-20T15:05:47.130Z,3.48
2017-07-20T15:08:13.880Z,3.68
2017-07-20T15:10:40.895Z,3.60
2017-07-20T15:13:08.015Z,3.62
2017-07-20T15:15:34.768Z,3.56
2017-07-20T15:18:01.546Z,3.42
2017-07-20T15:20:28.285Z,3.32
2017-07-20T15:22:55.047Z,3.74
2017-07-20T15:25:21.823Z,3.02
2017-07-20T15:27:48.576Z,2.98
2017-07-20T15:30:15.338Z,3.62
2017-07-20T15:32:42.114Z,2.76
2017-07-20T15:35:08.874Z,3.00
2017-07-20T15:37:35.633Z,2.68
2017-07-20T15:40:02.397Z,3.14
2017-07-20T15:42:29.412Z,2.74
2017-07-20T15:44:56.161Z,3.00
2017-07-20T15:47:22.905Z,2.50
2017-07-20T15:49:49.934Z,2.26
2017-07-20T15:52:16.964Z,2.68
2017-07-20T15:54:43.950Z,2.50
2017-07-20T15:57:10.722Z,2.60
2017-07-20T15:59:37.489Z,2.38
2017-07-20T16:02:04.764Z,2.48
2017-07-20T16:04:31.550Z,2.98
2017-07-20T16:06:58.312Z,2.24
2017-07-20T16:09:25.060Z,2.78
2017-07-20T16:11:51.825Z,2.82
2017-07-20T16:14:18.587Z,2.50
2017-07-20T16:16:45.332Z,3.46
2017-07-20T16:19:12.105Z,2.52
2017-07-20T16:21:38.861Z,3.00
2017-07-20T16:24:05.617Z,2.50
2017-07-20T16:26:32.401Z,2.84
2017-07-20T16:28:59.723Z,2.34
2017-07-20T16:31:26.720Z,2.26
2017-07-20T16:33:54.208Z,2.68
2017-07-20T16:36:20.958Z,2.86
2017-07-20T16:38:48.120Z,2.68
2017-07-20T16:41:14.892Z,2.40
2017-07-20T16:43:41.631Z,2.42
2017-07-20T16:46:08.372Z,2.42
2017-07-20T16:48:35.144Z,2.30
2017-07-20T16:51:01.918Z,2.08
2017-07-20T16:53:28.671Z,2.10
2017-07-20T16:55:55.813Z,2.52
2017-07-20T16:58:22.556Z,2.30
2017-07-20T17:00:50.653Z,1.98
2017-07-20T17:03:18.352Z,2.32
2017-07-20T17:05:46.144Z,2.52
2017-07-20T17:08:14.820Z,2.46
2017-07-20T17:10:42.630Z,2.54
2017-07-20T17:13:09.448Z,2.06
2017-07-20T17:15:37.745Z,2.00
2017-07-20T17:20:36.770Z,2.20
2017-07-20T17:23:04.193Z,1.96
2017-07-20T17:25:32.317Z,2.08
2017-07-20T17:28:01.695Z,1.96
2017-07-20T17:30:35.071Z,2.48
2017-07-20T17:33:05.315Z,2.08
2017-07-20T17:35:34.046Z,2.62
2017-07-20T17:38:04.430Z,2.36
2017-07-20T17:43:04.506Z,2.54
2017-07-20T17:45:31.838Z,3.02
2017-07-20T17:48:02.177Z,2.62
2017-07-20T17:50:28.965Z,2.60
2017-07-20T17:52:57.066Z,2.30
2017-07-20T17:55:26.322Z,2.62
2017-07-20T17:57:53.213Z,2.22
2017-07-20T18:00:21.182Z,2.28
2017-07-20T18:02:51.222Z,2.66
2017-07-20T18:05:19.623Z,2.96
2017-07-20T18:07:46.801Z,2.48
2017-07-20T18:10:15.130Z,2.80
2017-07-20T18:12:45.201Z,2.84
2017-07-20T18:15:13.116Z,2.64
2017-07-20T18:18:42.714Z,3.02
2017-07-20T18:21:10.222Z,2.40
2017-07-20T18:23:39.931Z,2.40
2017-07-20T18:26:09.869Z,2.40
2017-07-20T18:28:37.854Z,2.60
2017-07-20T18:31:05.881Z,2.76
2017-07-20T18:33:34.114Z,2.98
2017-07-20T18:36:01.651Z,2.64
2017-07-20T18:38:28.787Z,3.02
2017-07-20T18:40:56.010Z,2.64
2017-07-20T18:43:23.080Z,2.74
2017-07-20T18:45:54.344Z,2.88
2017-07-20T18:48:24.624Z,2.70
2017-07-20T18:50:52.488Z,3.26
2017-07-20T18:53:20.975Z,2.66
2017-07-20T18:55:47.799Z,2.68
2017-07-20T18:58:14.940Z,2.50
2017-07-20T19:00:43.742Z,3.44
2017-07-20T19:03:12.198Z,2.70
2017-07-20T19:05:39.904Z,3.26
2017-07-20T19:08:07.680Z,2.74
2017-07-20T19:16:00.301Z,2.94
2017-07-20T19:18:28.038Z,3.32
2017-07-20T19:20:57.628Z,2.98
2017-07-20T19:23:30.132Z,2.98
2017-07-20T19:25:59.463Z,2.94
2017-07-20T19:28:26.647Z,2.64
2017-07-20T19:30:55.340Z,2.40
2017-07-20T19:33:23.104Z,2.82
2017-07-20T19:35:51.116Z,2.46
2017-07-20T19:38:20.747Z,2.20
2017-07-20T19:40:57.451Z,1.72
2017-07-20T19:43:26.263Z,2.00
2017-07-20T19:45:53.297Z,2.12
2017-07-20T19:48:24.745Z,2.04
2017-07-20T19:50:54.741Z,1.92
2017-07-20T19:53:21.530Z,2.10
2017-07-20T19:55:51.396Z,1.90
2017-07-20T19:58:19.046Z,2.04
2017-07-20T20:00:47.080Z,2.22
2017-07-20T20:03:15.587Z,1.88
2017-07-20T20:05:43.064Z,1.96
2017-07-20T20:08:10.437Z,1.70
2017-07-20T20:10:39.692Z,1.64
2017-07-20T20:15:41.056Z,1.76
2017-07-20T20:18:11.700Z,1.56
2017-07-20T20:20:41.369Z,1.78
2017-07-20T20:23:10.955Z,1.50
2017-07-20T20:25:39.495Z,1.35
2017-07-20T20:28:08.257Z,1.52
2017-07-20T20:30:36.060Z,1.66
2017-07-20T20:33:03.880Z,1.76
2017-07-20T20:35:32.631Z,1.70
2017-07-20T20:40:37.956Z,1.00
2017-07-20T20:43:08.594Z,1.18
2017-07-20T20:45:38.131Z,1.18
2017-07-20T20:48:06.818Z,1.12
2017-07-20T20:53:07.660Z,1.48
2017-07-20T20:55:37.351Z,1.10
2017-07-20T21:00:43.180Z,1.30
2017-07-20T21:03:11.214Z,1.30
2017-07-20T21:05:40.870Z,1.25
2017-07-20T21:08:08.889Z,1.44
2017-07-20T21:10:38.212Z,1.88
2017-07-20T21:13:06.358Z,1.50
2017-07-20T21:18:05.877Z,1.75
2017-07-20T21:20:38.004Z,1.60
2017-07-20T21:23:05.163Z,2.20
2017-07-20T21:25:32.198Z,1.65
2017-07-20T21:27:59.454Z,1.92
2017-07-20T21:30:26.997Z,2.10
2017-07-20T21:32:54.928Z,2.02
2017-07-20T21:35:23.034Z,2.23
2017-07-20T21:37:54.840Z,2.00
2017-07-20T21:40:21.880Z,1.90
2017-07-20T21:42:50.158Z,2.00
2017-07-20T21:45:21.124Z,2.00
2017-07-20T21:47:48.768Z,2.45
2017-07-20T21:50:19.638Z,2.67
2017-07-20T21:52:47.663Z,1.80
2017-07-20T21:55:15.676Z,2.75
2017-07-20T21:57:42.984Z,2.27
2017-07-20T22:00:10.744Z,2.88
2017-07-20T22:02:38.057Z,2.55
2017-07-20T22:05:06.116Z,2.82
2017-07-20T22:07:33.841Z,2.98
2017-07-20T22:10:02.440Z,2.43
2017-07-20T22:12:29.362Z,2.67
2017-07-20T22:17:34.458Z,2.25
2017-07-20T22:20:02.486Z,2.57
2017-07-20T22:22:31.416Z,2.65
2017-07-20T22:25:03.236Z,2.70
2017-07-20T22:27:30.059Z,2.20
2017-07-20T22:29:56.856Z,2.17
2017-07-20T22:32:25.991Z,2.25
2017-07-20T22:34:54.343Z,3.18
2017-07-20T22:37:21.484Z,2.40
2017-07-20T22:39:54.057Z,3.13
2017-07-20T22:42:21.513Z,2.83
2017-07-20T22:44:48.335Z,2.23
2017-07-20T22:47:15.798Z,3.30
2017-07-20T22:49:43.830Z,3.87
2017-07-20T22:52:11.140Z,3.20
2017-07-20T22:54:38.202Z,3.80
2017-07-20T22:57:05.440Z,3.68
2017-07-20T22:59:33.823Z,3.88
2017-07-20T23:02:04.320Z,4.38
2017-07-20T23:04:31.935Z,4.07
2017-07-20T23:06:59.750Z,3.93
2017-07-20T23:09:26.693Z,3.55
2017-07-20T23:11:55.028Z,3.42
2017-07-20T23:14:23.616Z,3.70
2017-07-20T23:16:51.129Z,3.92
2017-07-20T23:19:24.172Z,3.95
2017-07-20T23:21:53.278Z,3.27
2017-07-20T23:24:21.040Z,4.30
2017-07-20T23:26:48.362Z,3.87
2017-07-20T23:29:15.213Z,4.10
2017-07-20T23:31:44.869Z,3.27
2017-07-20T23:34:13.934Z,3.78
2017-07-20T23:36:42.323Z,3.97
2017-07-20T23:39:11.746Z,5.15
2017-07-20T23:41:41.988Z,4.08
2017-07-20T23:44:09.530Z,4.18
2017-07-20T23:46:37.661Z,3.93
2017-07-20T23:49:04.930Z,4.13
2017-07-20T23:51:32.732Z,3.98
2017-07-20T23:54:00.309Z,3.52
2017-07-20T23:56:28.474Z,3.57
2017-07-20T23:58:57.489Z,4.67
